Reidville, South Carolina
Current Conditions -  °F | °C
As of 5:53 PM on Thursday 20 Nov 2014 (Local Time) from KGSP Reporting Station
Clear Clear  
Wind Chill: 52°   Ceiling: Unl
Heat Index: 52°   Visibility: 10mi
Dew Point: 27°   Wind: 9mph
Humidity: 38%   Direction: 230°SW
Pressure: 30.08"   Gusts: NA
Location:  34.86°N, 82.11°W
Report Text: KGSP 202253Z AUTO 23008KT 10SM CLR 11/M03 A3008 RMK AO2 SLP186 T01111028
Loading
Personal Weather Stations






























Interactive Weather Map New forecast layout! Learn more

10-Day Weather Forecast

Advertisements
Track Severe Weather on mobile